createdAt,value
2023-01-27T00:00:14.079Z,92.94
2023-01-27T00:01:13.634Z,92.53
2023-01-27T00:02:13.643Z,93.46
2023-01-27T00:03:13.722Z,93.04
2023-01-27T00:04:13.603Z,92.94
2023-01-27T00:05:13.609Z,93.15
2023-01-27T00:06:13.582Z,93.15
2023-01-27T00:07:13.568Z,92.94
2023-01-27T00:08:13.544Z,92.94
2023-01-27T00:09:13.554Z,92.94
2023-01-27T00:10:13.791Z,93.04
2023-01-27T00:11:13.542Z,93.19
2023-01-27T00:12:13.508Z,92.98
2023-01-27T00:13:13.517Z,92.98
2023-01-27T00:14:13.493Z,92.98
2023-01-27T00:15:13.509Z,93.25
2023-01-27T00:16:13.624Z,93.29
2023-01-27T00:17:13.455Z,93.29
2023-01-27T00:18:13.445Z,92.98
2023-01-27T00:19:13.439Z,93.50
2023-01-27T00:20:13.795Z,93.19
2023-01-27T00:21:13.445Z,93.60
2023-01-27T00:22:13.400Z,94.02
2023-01-27T00:23:13.394Z,93.81
2023-01-27T00:24:13.473Z,93.60
2023-01-27T00:25:13.363Z,93.71
2023-01-27T00:26:13.353Z,93.71
2023-01-27T00:27:13.394Z,93.81
2023-01-27T00:28:13.327Z,94.02
2023-01-27T00:29:13.326Z,93.91
2023-01-27T00:30:13.707Z,93.71
2023-01-27T00:31:13.450Z,93.19
2023-01-27T00:32:13.307Z,92.88
2023-01-27T00:33:13.300Z,93.23
2023-01-27T00:34:13.264Z,93.19
2023-01-27T00:35:13.260Z,93.19
2023-01-27T00:36:13.262Z,92.51
2023-01-27T00:37:13.238Z,92.41
2023-01-27T00:38:13.230Z,92.78
2023-01-27T00:39:13.229Z,92.72
2023-01-27T00:40:13.553Z,92.82
2023-01-27T00:41:13.197Z,91.99
2023-01-27T00:42:13.187Z,92.30
2023-01-27T00:43:13.196Z,92.82
2023-01-27T00:44:13.444Z,92.82
2023-01-27T00:45:13.157Z,93.02
2023-01-27T00:46:13.199Z,93.02
2023-01-27T00:47:13.125Z,92.82
2023-01-27T00:48:13.125Z,92.72
2023-01-27T00:49:13.129Z,92.93
2023-01-27T00:50:13.452Z,93.44
2023-01-27T00:51:13.088Z,93.13
2023-01-27T00:52:13.065Z,92.93
2023-01-27T00:53:13.062Z,93.02
2023-01-27T00:54:13.049Z,93.23
2023-01-27T00:55:13.048Z,93.23
2023-01-27T00:56:13.022Z,93.02
2023-01-27T00:57:13.031Z,93.23
2023-01-27T00:58:13.014Z,93.02
2023-01-27T00:59:13.050Z,93.44
2023-01-27T01:00:13.420Z,93.44
2023-01-27T01:01:12.989Z,93.13
2023-01-27T01:02:12.993Z,93.13
2023-01-27T01:03:13.074Z,93.13
2023-01-27T01:04:12.977Z,93.44
2023-01-27T01:05:12.971Z,93.02
2023-01-27T01:06:12.933Z,93.02
2023-01-27T01:07:12.909Z,93.33
2023-01-27T01:08:12.898Z,93.13
2023-01-27T01:09:12.899Z,93.13
2023-01-27T01:10:13.300Z,93.02
2023-01-27T01:11:12.879Z,93.13
2023-01-27T01:12:12.878Z,93.23
2023-01-27T01:13:12.852Z,92.93
2023-01-27T01:14:12.852Z,92.82
2023-01-27T01:15:12.845Z,93.02
2023-01-27T01:16:12.859Z,94.06
2023-01-27T01:17:12.807Z,93.65
2023-01-27T01:18:12.808Z,93.75
2023-01-27T01:19:12.819Z,94.01
2023-01-27T01:20:13.215Z,93.90
2023-01-27T01:21:12.770Z,93.85
2023-01-27T01:22:12.742Z,93.85
2023-01-27T01:23:12.739Z,93.75
2023-01-27T01:24:12.736Z,94.11
2023-01-27T01:25:12.749Z,93.49
2023-01-27T01:26:12.711Z,93.70
2023-01-27T01:27:12.687Z,93.96
2023-01-27T01:28:12.684Z,93.65
2023-01-27T01:29:12.691Z,94.27
2023-01-27T01:30:13.005Z,94.06
2023-01-27T01:31:12.776Z,94.21
2023-01-27T01:32:12.653Z,94.17
2023-01-27T01:33:12.629Z,94.58
2023-01-27T01:34:12.609Z,95.00
2023-01-27T01:35:12.616Z,94.89
2023-01-27T01:36:12.612Z,94.89
2023-01-27T01:37:12.586Z,95.00
2023-01-27T01:38:12.592Z,95.10
2023-01-27T01:39:12.560Z,94.68
2023-01-27T01:40:12.860Z,94.89
2023-01-27T01:41:12.552Z,95.00
2023-01-27T01:42:12.547Z,95.10
2023-01-27T01:43:12.579Z,95.00
2023-01-27T01:44:12.522Z,95.00
2023-01-27T01:45:12.495Z,94.79
2023-01-27T01:46:12.685Z,94.94
2023-01-27T01:47:12.575Z,95.51
2023-01-27T01:48:12.464Z,95.41
2023-01-27T01:49:12.462Z,95.51
2023-01-27T01:50:12.818Z,95.10
2023-01-27T01:51:12.438Z,95.20
2023-01-27T01:52:12.441Z,95.31
2023-01-27T01:53:12.409Z,95.62
2023-01-27T01:54:12.397Z,95.72
2023-01-27T01:55:12.723Z,95.62
2023-01-27T01:56:12.371Z,95.46
2023-01-27T01:57:12.373Z,96.70
2023-01-27T01:58:12.405Z,96.24
2023-01-27T01:59:12.344Z,95.93
2023-01-27T02:00:12.672Z,95.93
2023-01-27T02:01:19.499Z,96.86
2023-01-27T02:02:12.343Z,96.34
2023-01-27T02:03:12.335Z,95.83
2023-01-27T02:04:12.288Z,96.76
2023-01-27T02:05:12.570Z,96.76
2023-01-27T02:06:12.262Z,96.45
2023-01-27T02:07:12.261Z,96.76
2023-01-27T02:08:12.246Z,96.86
2023-01-27T02:09:12.248Z,96.76
2023-01-27T02:10:12.493Z,96.86
2023-01-27T02:11:12.229Z,96.76
2023-01-27T02:12:12.210Z,96.45
2023-01-27T02:13:12.189Z,96.50
2023-01-27T02:14:12.179Z,96.70
2023-01-27T02:15:12.540Z,96.19
2023-01-27T02:16:12.179Z,96.81
2023-01-27T02:17:12.168Z,96.24
2023-01-27T02:18:12.134Z,96.97
2023-01-27T02:19:12.149Z,96.66
2023-01-27T02:20:12.220Z,96.34
2023-01-27T02:21:12.114Z,96.76
2023-01-27T02:22:12.105Z,96.03
2023-01-27T02:23:12.085Z,95.72
2023-01-27T02:24:12.134Z,95.72
2023-01-27T02:25:12.470Z,96.45
2023-01-27T02:26:12.063Z,95.83
2023-01-27T02:27:12.081Z,96.34
2023-01-27T02:28:12.026Z,96.76
2023-01-27T02:29:12.034Z,96.66
2023-01-27T02:30:12.017Z,96.86
2023-01-27T02:31:12.122Z,96.66
2023-01-27T02:32:11.982Z,96.66
2023-01-27T02:33:11.984Z,96.24
2023-01-27T02:34:11.959Z,96.24
2023-01-27T02:35:12.341Z,96.19
2023-01-27T02:36:11.935Z,96.24
2023-01-27T02:37:11.962Z,96.39
2023-01-27T02:38:11.919Z,96.34
2023-01-27T02:39:11.911Z,96.55
2023-01-27T02:40:11.899Z,96.34
2023-01-27T02:41:11.881Z,95.93
2023-01-27T02:42:11.886Z,95.93
2023-01-27T02:43:11.895Z,96.24
2023-01-27T02:44:11.868Z,96.24
2023-01-27T02:45:12.283Z,96.14
2023-01-27T02:46:11.875Z,96.14
2023-01-27T02:47:11.828Z,96.14
2023-01-27T02:48:11.831Z,96.19
2023-01-27T02:49:11.805Z,96.24
2023-01-27T02:50:11.803Z,95.72
2023-01-27T02:51:11.803Z,97.02
2023-01-27T02:52:11.776Z,95.83
2023-01-27T02:53:11.753Z,95.93
2023-01-27T02:54:11.757Z,96.66
2023-01-27T02:55:12.105Z,95.62
2023-01-27T02:56:11.717Z,96.66
2023-01-27T02:57:11.716Z,96.14
2023-01-27T02:58:11.718Z,96.45
2023-01-27T02:59:11.692Z,96.66
2023-01-27T03:00:11.705Z,96.86
2023-01-27T03:01:11.698Z,96.86
2023-01-27T03:02:11.729Z,96.66
2023-01-27T03:03:11.645Z,96.14
2023-01-27T03:04:11.643Z,96.97
2023-01-27T03:05:12.084Z,96.97
2023-01-27T03:06:11.615Z,96.45
2023-01-27T03:07:11.626Z,96.45
2023-01-27T03:08:11.584Z,96.45
2023-01-27T03:09:11.601Z,96.86
2023-01-27T03:10:11.611Z,96.76
2023-01-27T03:11:11.576Z,96.55
2023-01-27T03:12:11.549Z,96.86
2023-01-27T03:13:11.541Z,96.55
2023-01-27T03:14:11.532Z,96.76
2023-01-27T03:15:12.078Z,97.07
2023-01-27T03:16:13.556Z,96.86
2023-01-27T03:17:11.514Z,96.55
2023-01-27T03:18:11.476Z,96.66
2023-01-27T03:19:11.470Z,96.55
2023-01-27T03:20:11.469Z,96.66
2023-01-27T03:21:11.479Z,96.45
2023-01-27T03:22:11.449Z,96.66
2023-01-27T03:23:11.451Z,96.66
2023-01-27T03:24:11.447Z,96.76
2023-01-27T03:25:11.831Z,96.66
2023-01-27T03:26:11.395Z,96.45
2023-01-27T03:27:11.397Z,96.66
2023-01-27T03:28:11.376Z,96.45
2023-01-27T03:29:11.371Z,96.45
2023-01-27T03:30:11.351Z,96.34
2023-01-27T03:31:11.439Z,96.55
2023-01-27T03:32:11.348Z,96.76
2023-01-27T03:33:11.322Z,96.66
2023-01-27T03:34:11.318Z,96.66
2023-01-27T03:35:11.674Z,96.34
2023-01-27T03:36:11.285Z,96.34
2023-01-27T03:37:11.288Z,96.66
2023-01-27T03:38:11.269Z,96.34
2023-01-27T03:39:11.293Z,96.66
2023-01-27T03:40:11.280Z,96.45
2023-01-27T03:41:11.229Z,96.81
2023-01-27T03:42:11.248Z,96.91
2023-01-27T03:43:11.218Z,96.70
2023-01-27T03:44:11.204Z,96.55
2023-01-27T03:45:11.536Z,96.60
2023-01-27T03:46:11.244Z,96.39
2023-01-27T03:47:11.172Z,96.91
2023-01-27T03:48:11.167Z,96.34
2023-01-27T03:49:11.142Z,96.60
2023-01-27T03:50:11.169Z,96.55
2023-01-27T03:51:11.133Z,96.70
2023-01-27T03:52:11.134Z,96.76
2023-01-27T03:53:11.107Z,96.91
2023-01-27T03:54:11.090Z,97.07
2023-01-27T03:55:11.641Z,96.76
2023-01-27T03:56:11.099Z,96.91
2023-01-27T03:57:11.062Z,97.38
2023-01-27T03:58:11.062Z,97.17
2023-01-27T03:59:11.075Z,96.81
2023-01-27T04:00:11.027Z,96.29
2023-01-27T04:01:11.025Z,96.81
2023-01-27T04:02:11.010Z,96.34
2023-01-27T04:03:11.000Z,96.29
2023-01-27T04:04:10.980Z,96.39
2023-01-27T04:05:11.688Z,96.50
2023-01-27T04:06:10.969Z,96.39
2023-01-27T04:07:10.947Z,96.39
2023-01-27T04:08:10.944Z,96.50
2023-01-27T04:09:10.959Z,96.39
2023-01-27T04:10:10.925Z,96.70
2023-01-27T04:11:10.925Z,96.50
2023-01-27T04:12:10.914Z,96.29
2023-01-27T04:13:10.883Z,97.02
2023-01-27T04:14:10.885Z,96.70
2023-01-27T04:15:11.214Z,96.81
2023-01-27T04:16:10.912Z,97.22
2023-01-27T04:17:10.878Z,96.91
2023-01-27T04:18:10.833Z,97.22
2023-01-27T04:19:10.823Z,97.12
2023-01-27T04:20:10.815Z,96.81
2023-01-27T04:21:10.829Z,97.02
2023-01-27T04:22:10.795Z,97.22
2023-01-27T04:23:10.773Z,97.02
2023-01-27T04:24:10.847Z,97.02
2023-01-27T04:25:13.046Z,97.02
2023-01-27T04:26:10.749Z,96.85
2023-01-27T04:27:10.758Z,96.60
2023-01-27T04:28:10.722Z,96.75
2023-01-27T04:29:10.707Z,96.64
2023-01-27T04:30:10.727Z,96.85
2023-01-27T04:31:10.815Z,96.95
2023-01-27T04:32:10.686Z,97.06
2023-01-27T04:33:10.676Z,96.85
2023-01-27T04:34:10.664Z,96.95
2023-01-27T04:35:11.180Z,97.06
2023-01-27T04:36:10.681Z,96.75
2023-01-27T04:37:10.648Z,97.16
2023-01-27T04:38:12.181Z,97.58
2023-01-27T04:39:10.643Z,97.78
2023-01-27T04:40:10.622Z,97.58
2023-01-27T04:41:10.578Z,97.47
2023-01-27T04:42:10.578Z,97.16
2023-01-27T04:43:10.592Z,97.47
2023-01-27T04:44:10.558Z,97.37
2023-01-27T04:45:10.607Z,97.47
2023-01-27T04:46:10.539Z,97.47
2023-01-27T04:47:10.529Z,97.37
2023-01-27T04:48:10.522Z,97.47
2023-01-27T04:49:10.502Z,97.58
2023-01-27T04:50:10.488Z,97.47
2023-01-27T04:51:10.469Z,97.52
2023-01-27T04:52:10.483Z,97.52
2023-01-27T04:53:10.446Z,97.47
2023-01-27T04:54:10.456Z,97.41
2023-01-27T04:55:10.481Z,97.52
2023-01-27T04:56:10.416Z,97.83
2023-01-27T04:57:10.405Z,97.62
2023-01-27T04:58:10.411Z,97.62
2023-01-27T04:59:10.418Z,97.62
2023-01-27T05:00:10.382Z,98.03
2023-01-27T05:01:10.380Z,98.24
2023-01-27T05:02:10.420Z,98.66
2023-01-27T05:03:10.476Z,98.66
2023-01-27T05:04:10.348Z,98.45
2023-01-27T05:05:10.343Z,98.45
2023-01-27T05:06:10.308Z,98.35
2023-01-27T05:07:10.321Z,98.45
2023-01-27T05:08:10.294Z,98.35
2023-01-27T05:09:10.279Z,98.55
2023-01-27T05:10:10.301Z,98.24
2023-01-27T05:11:10.262Z,98.45
2023-01-27T05:12:10.247Z,98.66
2023-01-27T05:13:10.235Z,98.55
2023-01-27T05:14:10.234Z,98.66
2023-01-27T05:15:10.440Z,98.03
2023-01-27T05:16:10.260Z,98.93
2023-01-27T05:17:10.184Z,98.97
2023-01-27T05:18:10.203Z,99.07
2023-01-27T05:19:10.196Z,99.18
2023-01-27T05:20:10.156Z,99.18
2023-01-27T05:21:10.190Z,98.82
2023-01-27T05:22:10.143Z,98.14
2023-01-27T05:23:10.125Z,99.03
2023-01-27T05:24:10.159Z,99.07
2023-01-27T05:25:10.204Z,98.55
2023-01-27T05:26:10.102Z,98.51
2023-01-27T05:27:10.095Z,98.72
2023-01-27T05:28:10.091Z,98.10
2023-01-27T05:29:10.078Z,98.51
2023-01-27T05:30:10.093Z,98.72
2023-01-27T05:31:10.175Z,98.10
2023-01-27T05:32:10.031Z,98.10
2023-01-27T05:33:10.033Z,98.86
2023-01-27T05:34:10.031Z,99.03
2023-01-27T05:35:10.112Z,99.07
2023-01-27T05:36:10.037Z,98.86
2023-01-27T05:37:09.972Z,99.03
2023-01-27T05:38:09.967Z,98.55
2023-01-27T05:39:09.971Z,98.66
2023-01-27T05:40:09.941Z,98.66
2023-01-27T05:41:09.938Z,98.61
2023-01-27T05:42:09.928Z,98.61
2023-01-27T05:43:09.907Z,98.72
2023-01-27T05:44:09.904Z,98.41
2023-01-27T05:45:09.884Z,98.51
2023-01-27T05:46:09.928Z,99.13
2023-01-27T05:47:09.904Z,98.51
2023-01-27T05:48:09.862Z,98.93
2023-01-27T05:49:09.846Z,98.82
2023-01-27T05:50:09.835Z,98.82
2023-01-27T05:51:09.836Z,98.93
2023-01-27T05:52:09.815Z,98.93
2023-01-27T05:53:09.814Z,98.82
2023-01-27T05:54:09.808Z,98.93
2023-01-27T05:55:09.796Z,99.13
2023-01-27T05:56:09.768Z,99.34
2023-01-27T05:57:09.777Z,98.51
2023-01-27T05:58:09.758Z,98.93
2023-01-27T05:59:09.741Z,98.93
2023-01-27T06:00:09.755Z,98.82
2023-01-27T06:01:09.712Z,98.93
2023-01-27T06:02:09.699Z,98.93
2023-01-27T06:03:09.847Z,98.93
2023-01-27T06:04:09.697Z,99.24
2023-01-27T06:05:09.685Z,99.03
2023-01-27T06:06:09.676Z,98.99
2023-01-27T06:07:09.654Z,99.13
2023-01-27T06:08:09.647Z,99.03
2023-01-27T06:09:09.663Z,99.13
2023-01-27T06:10:09.614Z,99.44
2023-01-27T06:11:09.611Z,99.44
2023-01-27T06:12:09.604Z,99.19
2023-01-27T06:13:09.579Z,98.88
2023-01-27T06:14:09.587Z,98.51
2023-01-27T06:15:09.559Z,99.09
2023-01-27T06:16:09.589Z,98.57
2023-01-27T06:17:09.542Z,99.30
2023-01-27T06:18:09.531Z,98.78
2023-01-27T06:19:09.540Z,99.03
2023-01-27T06:20:09.521Z,98.88
2023-01-27T06:21:09.534Z,98.78
2023-01-27T06:22:09.490Z,98.68
2023-01-27T06:23:09.496Z,98.99
2023-01-27T06:24:11.317Z,98.93
2023-01-27T06:25:09.453Z,98.88
2023-01-27T06:26:09.446Z,98.99
2023-01-27T06:27:09.453Z,99.19
2023-01-27T06:28:12.550Z,99.30
2023-01-27T06:29:10.416Z,98.99
2023-01-27T06:30:09.397Z,99.30
2023-01-27T06:31:09.459Z,99.30
2023-01-27T06:32:09.425Z,99.09
2023-01-27T06:33:09.383Z,99.03
2023-01-27T06:34:09.367Z,99.09
2023-01-27T06:35:09.362Z,99.30
2023-01-27T06:36:09.360Z,99.19
2023-01-27T06:37:09.315Z,99.30
2023-01-27T06:38:10.791Z,99.30
2023-01-27T06:39:09.303Z,99.09
2023-01-27T06:40:09.302Z,99.30
2023-01-27T06:41:09.302Z,99.19
2023-01-27T06:42:09.264Z,98.94
2023-01-27T06:43:09.278Z,99.09
2023-01-27T06:44:09.270Z,99.19
2023-01-27T06:45:09.229Z,98.26
2023-01-27T06:46:09.291Z,98.57
2023-01-27T06:47:09.228Z,98.68
2023-01-27T06:48:09.206Z,98.68
2023-01-27T06:49:09.194Z,98.68
2023-01-27T06:50:09.202Z,98.57
2023-01-27T06:51:09.193Z,98.16
2023-01-27T06:52:09.186Z,98.99
2023-01-27T06:53:09.149Z,98.36
2023-01-27T06:54:09.145Z,98.78
2023-01-27T06:55:09.157Z,98.99
2023-01-27T06:56:09.125Z,98.68
2023-01-27T06:57:09.110Z,98.88
2023-01-27T06:58:09.119Z,98.47
2023-01-27T06:59:09.084Z,98.52
2023-01-27T07:00:09.079Z,98.57
2023-01-27T07:01:09.147Z,98.42
2023-01-27T07:02:09.053Z,98.47
2023-01-27T07:03:09.073Z,98.57
2023-01-27T07:04:09.036Z,98.52
2023-01-27T07:05:09.027Z,97.95
2023-01-27T07:06:09.009Z,97.95
2023-01-27T07:07:09.021Z,97.85
2023-01-27T07:08:08.984Z,97.53
2023-01-27T07:09:08.992Z,97.74
2023-01-27T07:10:08.960Z,97.33
2023-01-27T07:11:08.956Z,97.95
2023-01-27T07:12:08.942Z,97.64
2023-01-27T07:13:08.958Z,97.64
2023-01-27T07:14:10.528Z,97.74
2023-01-27T07:15:08.915Z,97.64
2023-01-27T07:16:08.965Z,97.74
2023-01-27T07:17:08.900Z,97.74
2023-01-27T07:18:08.880Z,97.64
2023-01-27T07:19:08.898Z,97.43
2023-01-27T07:20:08.877Z,97.64
2023-01-27T07:21:08.860Z,97.22
2023-01-27T07:22:08.831Z,97.33
2023-01-27T07:23:08.856Z,97.64
2023-01-27T07:24:08.909Z,97.53
2023-01-27T07:25:08.804Z,97.74
2023-01-27T07:26:23.219Z,97.85
2023-01-27T07:27:09.780Z,97.12
2023-01-27T07:28:08.780Z,97.33
2023-01-27T07:29:08.777Z,97.22
2023-01-27T07:30:08.758Z,97.22
2023-01-27T07:31:08.886Z,97.53
2023-01-27T07:32:08.725Z,97.43
2023-01-27T07:33:08.722Z,97.43
2023-01-27T07:34:08.706Z,97.22
2023-01-27T07:35:08.706Z,97.33
2023-01-27T07:36:08.682Z,97.33
2023-01-27T07:37:08.683Z,97.64
2023-01-27T07:38:08.667Z,97.49
2023-01-27T07:39:08.670Z,97.43
2023-01-27T07:40:08.646Z,97.33
2023-01-27T07:41:08.635Z,97.22
2023-01-27T07:42:08.648Z,97.64
2023-01-27T07:43:08.604Z,97.43
2023-01-27T07:44:08.624Z,97.22
2023-01-27T07:45:08.577Z,97.33
2023-01-27T07:46:08.626Z,97.22
2023-01-27T07:47:08.567Z,97.43
2023-01-27T07:48:08.565Z,97.43
2023-01-27T07:49:08.543Z,97.43
2023-01-27T07:50:08.547Z,97.64
2023-01-27T07:51:08.518Z,97.64
2023-01-27T07:52:08.506Z,97.64
2023-01-27T07:53:08.491Z,97.43
2023-01-27T07:54:08.500Z,97.22
2023-01-27T07:55:08.500Z,97.43
2023-01-27T07:56:08.476Z,97.43
2023-01-27T07:57:08.455Z,97.33
2023-01-27T07:58:08.444Z,97.33
2023-01-27T07:59:08.443Z,97.33
2023-01-27T08:00:08.443Z,97.22
2023-01-27T08:01:08.477Z,97.53
2023-01-27T08:02:16.009Z,97.17
2023-01-27T08:03:08.428Z,97.33
2023-01-27T08:04:08.399Z,97.33
2023-01-27T08:05:08.421Z,97.49
2023-01-27T08:06:08.354Z,97.33
2023-01-27T08:07:08.350Z,97.28
2023-01-27T08:08:08.351Z,97.28
2023-01-27T08:09:08.331Z,97.07
2023-01-27T08:10:08.313Z,97.02
2023-01-27T08:11:08.333Z,97.02
2023-01-27T08:12:08.292Z,97.53
2023-01-27T08:13:08.331Z,96.91
2023-01-27T08:14:08.266Z,96.91
2023-01-27T08:15:08.268Z,97.12
2023-01-27T08:16:08.296Z,97.07
2023-01-27T08:17:08.232Z,97.12
2023-01-27T08:18:08.225Z,97.02
2023-01-27T08:19:08.235Z,97.07
2023-01-27T08:20:08.213Z,97.22
2023-01-27T08:21:08.202Z,96.81
2023-01-27T08:22:08.194Z,96.34
2023-01-27T08:23:08.191Z,96.24
2023-01-27T08:24:08.197Z,96.39
2023-01-27T08:25:08.153Z,96.55
2023-01-27T08:26:08.143Z,96.66
2023-01-27T08:27:08.425Z,96.24
2023-01-27T08:28:08.124Z,96.76
2023-01-27T08:29:08.103Z,96.86
2023-01-27T08:30:08.102Z,96.81
2023-01-27T08:31:08.078Z,97.07
2023-01-27T08:32:08.084Z,96.91
2023-01-27T08:33:08.059Z,96.66
2023-01-27T08:34:08.051Z,96.86
2023-01-27T08:35:08.045Z,96.97
2023-01-27T08:36:08.027Z,96.91
2023-01-27T08:37:08.030Z,96.91
2023-01-27T08:38:08.026Z,96.66
2023-01-27T08:39:08.007Z,97.07
2023-01-27T08:40:07.985Z,96.86
2023-01-27T08:41:07.983Z,96.97
2023-01-27T08:42:07.957Z,96.66
2023-01-27T08:43:07.973Z,97.59
2023-01-27T08:44:07.958Z,96.86
2023-01-27T08:45:07.927Z,96.86
2023-01-27T08:46:07.968Z,96.66
2023-01-27T08:47:07.920Z,96.97
2023-01-27T08:48:07.891Z,96.55
2023-01-27T08:49:07.904Z,96.97
2023-01-27T08:50:07.866Z,97.17
2023-01-27T08:51:07.860Z,96.97
2023-01-27T08:52:07.850Z,97.38
2023-01-27T08:53:07.842Z,97.38
2023-01-27T08:54:07.859Z,97.07
2023-01-27T08:55:07.840Z,97.49
2023-01-27T08:56:07.854Z,97.17
2023-01-27T08:57:07.794Z,96.97
2023-01-27T08:58:07.828Z,96.97
2023-01-27T08:59:07.805Z,96.66
2023-01-27T09:00:07.783Z,97.22
2023-01-27T09:01:07.877Z,97.07
2023-01-27T09:02:07.740Z,97.07
2023-01-27T09:03:07.733Z,96.97
2023-01-27T09:04:07.903Z,97.28
2023-01-27T09:05:07.736Z,96.76
2023-01-27T09:06:07.702Z,97.07
2023-01-27T09:07:07.694Z,97.17
2023-01-27T09:08:07.704Z,97.28
2023-01-27T09:09:10.050Z,97.17
2023-01-27T09:10:14.498Z,97.07
2023-01-27T09:11:08.651Z,97.17
2023-01-27T09:12:07.635Z,97.17
2023-01-27T09:13:07.640Z,97.07
2023-01-27T09:14:07.614Z,96.92
2023-01-27T09:15:07.630Z,97.07
2023-01-27T09:16:07.621Z,96.92
2023-01-27T09:17:07.653Z,97.07
2023-01-27T09:18:07.576Z,97.13
2023-01-27T09:19:07.565Z,96.30
2023-01-27T09:20:07.595Z,96.45
2023-01-27T09:21:07.539Z,96.61
2023-01-27T09:22:07.521Z,96.55
2023-01-27T09:23:07.523Z,96.55
2023-01-27T09:24:07.645Z,96.55
2023-01-27T09:25:07.496Z,96.61
2023-01-27T09:26:07.495Z,95.68
2023-01-27T09:27:07.472Z,96.82
2023-01-27T09:28:07.464Z,95.89
2023-01-27T09:29:07.484Z,95.89
2023-01-27T09:30:07.435Z,96.30
2023-01-27T09:31:07.573Z,95.89
2023-01-27T09:32:07.488Z,95.47
2023-01-27T09:33:07.414Z,95.57
2023-01-27T09:34:07.392Z,95.47
2023-01-27T09:35:07.387Z,95.22
2023-01-27T09:36:07.366Z,94.95
2023-01-27T09:37:07.407Z,95.37
2023-01-27T09:38:07.358Z,95.47
2023-01-27T09:39:07.348Z,95.16
2023-01-27T09:40:07.334Z,94.85
2023-01-27T09:41:07.333Z,94.74
2023-01-27T09:42:07.320Z,94.64
2023-01-27T09:43:07.314Z,94.43
2023-01-27T09:44:07.279Z,95.06
2023-01-27T09:45:07.275Z,94.85
2023-01-27T09:46:07.292Z,94.85
2023-01-27T09:47:07.315Z,94.91
2023-01-27T09:48:07.249Z,94.60
2023-01-27T09:49:07.238Z,94.49
2023-01-27T09:50:07.216Z,94.08
2023-01-27T09:51:07.241Z,94.87
2023-01-27T09:52:07.258Z,94.97
2023-01-27T09:53:07.192Z,93.73
2023-01-27T09:54:07.226Z,93.10
2023-01-27T09:55:07.177Z,93.15
2023-01-27T09:56:07.152Z,93.10
2023-01-27T09:57:07.154Z,93.15
2023-01-27T09:58:07.128Z,93.15
2023-01-27T09:59:07.134Z,93.15
2023-01-27T10:00:07.114Z,93.15
2023-01-27T10:01:07.184Z,92.94
2023-01-27T10:02:07.153Z,94.08
2023-01-27T10:03:07.102Z,92.74
2023-01-27T10:04:07.110Z,93.77
2023-01-27T10:05:07.067Z,94.08
2023-01-27T10:06:07.052Z,93.77
2023-01-27T10:07:07.036Z,93.66
2023-01-27T10:08:07.034Z,93.87
2023-01-27T10:09:07.023Z,93.56
2023-01-27T10:10:07.034Z,93.87
2023-01-27T10:11:06.995Z,93.56
2023-01-27T10:12:07.024Z,93.56
2023-01-27T10:13:06.995Z,93.66
2023-01-27T10:14:06.979Z,93.77
2023-01-27T10:15:06.956Z,93.77
2023-01-27T10:16:06.966Z,93.71
2023-01-27T10:17:06.935Z,93.77
2023-01-27T10:18:06.923Z,93.71
2023-01-27T10:19:07.115Z,93.81
2023-01-27T10:20:06.914Z,93.91
2023-01-27T10:21:06.904Z,93.50
2023-01-27T10:22:06.878Z,93.91
2023-01-27T10:23:06.869Z,94.12
2023-01-27T10:24:06.882Z,94.08
2023-01-27T10:25:06.883Z,94.02
2023-01-27T10:26:06.833Z,94.12
2023-01-27T10:27:08.763Z,93.91
2023-01-27T10:28:06.824Z,94.29
2023-01-27T10:29:06.797Z,94.95
2023-01-27T10:30:06.783Z,94.85
2023-01-27T10:31:06.912Z,94.95
2023-01-27T10:32:06.781Z,94.12
2023-01-27T10:33:06.757Z,94.12
2023-01-27T10:34:06.768Z,93.91
2023-01-27T10:35:06.757Z,93.91
2023-01-27T10:36:06.739Z,93.98
2023-01-27T10:37:06.788Z,93.40
2023-01-27T10:38:06.717Z,94.12
2023-01-27T10:39:06.686Z,94.02
2023-01-27T10:40:06.672Z,93.81
2023-01-27T10:41:06.717Z,93.81
2023-01-27T10:42:06.666Z,93.87
2023-01-27T10:43:06.654Z,94.18
2023-01-27T10:44:06.656Z,93.56
2023-01-27T10:45:06.622Z,93.56
2023-01-27T10:46:06.727Z,94.08
2023-01-27T10:47:06.614Z,93.87
2023-01-27T10:48:06.637Z,93.77
2023-01-27T10:49:06.602Z,93.62
2023-01-27T10:50:06.591Z,93.62
2023-01-27T10:51:06.620Z,93.00
2023-01-27T10:52:06.565Z,92.90
2023-01-27T10:53:06.550Z,93.00
2023-01-27T10:54:06.522Z,93.00
2023-01-27T10:55:06.536Z,93.31
2023-01-27T10:56:06.502Z,93.00
2023-01-27T10:57:06.530Z,92.90
2023-01-27T10:58:06.478Z,93.10
2023-01-27T10:59:06.484Z,93.27
2023-01-27T11:00:51.463Z,92.24
2023-01-27T11:01:23.714Z,91.97
2023-01-27T11:02:07.525Z,94.26
2023-01-27T11:03:06.459Z,92.57
2023-01-27T11:04:06.504Z,92.05
2023-01-27T11:05:06.404Z,90.74
2023-01-27T11:06:06.406Z,90.53
2023-01-27T11:07:06.409Z,90.58
2023-01-27T11:08:06.397Z,90.26
2023-01-27T11:09:06.364Z,90.68
2023-01-27T11:10:06.346Z,91.09
2023-01-27T11:11:06.340Z,91.09
2023-01-27T11:12:06.353Z,91.45
2023-01-27T11:13:06.324Z,91.35
2023-01-27T11:14:06.318Z,91.14
2023-01-27T11:15:06.305Z,91.03
2023-01-27T11:16:06.348Z,91.03
2023-01-27T11:17:06.272Z,90.62
2023-01-27T11:18:06.264Z,90.10
2023-01-27T11:19:06.251Z,90.62
2023-01-27T11:20:06.257Z,90.72
2023-01-27T11:21:06.233Z,90.72
2023-01-27T11:22:08.618Z,90.52
2023-01-27T11:23:06.229Z,90.83
2023-01-27T11:24:06.266Z,90.20
2023-01-27T11:25:06.212Z,90.83
2023-01-27T11:26:06.173Z,90.20
2023-01-27T11:27:06.180Z,90.41
2023-01-27T11:28:06.152Z,89.89
2023-01-27T11:29:06.147Z,90.52
2023-01-27T11:30:06.246Z,90.41
2023-01-27T11:31:06.193Z,90.31
2023-01-27T11:32:06.193Z,90.41
2023-01-27T11:33:06.141Z,90.41
2023-01-27T11:34:06.088Z,90.83
2023-01-27T11:35:06.100Z,90.93
2023-01-27T11:36:06.077Z,90.72
2023-01-27T11:37:06.059Z,90.00
2023-01-27T11:38:15.419Z,90.10
2023-01-27T11:39:07.059Z,90.20
2023-01-27T11:40:06.035Z,90.93
2023-01-27T11:41:06.017Z,90.31
2023-01-27T11:42:06.015Z,90.20
2023-01-27T11:43:06.000Z,89.48
2023-01-27T11:44:05.978Z,88.96
2023-01-27T11:45:05.976Z,89.48
2023-01-27T11:46:06.033Z,89.28
2023-01-27T11:47:05.957Z,88.03
2023-01-27T11:48:05.938Z,87.62
2023-01-27T11:49:05.926Z,87.51
2023-01-27T11:50:05.927Z,87.72
2023-01-27T11:51:05.940Z,87.30
2023-01-27T11:52:06.019Z,87.82
2023-01-27T11:53:05.885Z,87.62
2023-01-27T11:54:05.869Z,86.96
2023-01-27T11:55:05.953Z,85.86
2023-01-27T11:56:05.851Z,85.24
2023-01-27T11:57:05.853Z,85.65
2023-01-27T11:58:05.842Z,85.24
2023-01-27T11:59:05.838Z,85.09
2023-01-27T12:00:05.805Z,84.68
2023-01-27T12:01:05.799Z,85.30
2023-01-27T12:02:05.790Z,85.19
2023-01-27T12:03:05.819Z,85.71
2023-01-27T12:04:05.878Z,85.71
2023-01-27T12:05:05.791Z,85.82
2023-01-27T12:06:05.791Z,85.88
2023-01-27T12:07:05.805Z,85.36
2023-01-27T12:08:05.761Z,85.99
2023-01-27T12:09:05.711Z,86.29
2023-01-27T12:10:05.702Z,86.23
2023-01-27T12:11:05.751Z,86.33
2023-01-27T12:12:05.701Z,86.13
2023-01-27T12:13:05.688Z,86.13
2023-01-27T12:14:05.654Z,87.06
2023-01-27T12:15:05.644Z,86.37
2023-01-27T12:16:05.683Z,86.68
2023-01-27T12:17:05.628Z,86.96
2023-01-27T12:18:05.627Z,86.99
2023-01-27T12:19:05.611Z,86.79
2023-01-27T12:20:05.590Z,87.41
2023-01-27T12:21:05.600Z,86.68
2023-01-27T12:22:05.573Z,87.41
2023-01-27T12:23:05.576Z,87.55
2023-01-27T12:24:05.609Z,87.20
2023-01-27T12:25:05.568Z,86.68
2023-01-27T12:26:05.526Z,87.20
2023-01-27T12:27:05.546Z,87.41
2023-01-27T12:28:05.540Z,87.62
2023-01-27T12:29:05.497Z,87.72
2023-01-27T12:30:05.514Z,87.10
2023-01-27T12:31:05.517Z,87.30
2023-01-27T12:32:05.601Z,87.62
2023-01-27T12:33:05.447Z,87.62
2023-01-27T12:34:05.461Z,86.47
2023-01-27T12:35:05.453Z,86.68
2023-01-27T12:36:05.463Z,87.10
2023-01-27T12:37:05.405Z,86.99
2023-01-27T12:38:05.393Z,87.30
2023-01-27T12:39:05.402Z,87.20
2023-01-27T12:40:05.490Z,87.30
2023-01-27T12:41:05.359Z,87.30
2023-01-27T12:42:05.423Z,87.16
2023-01-27T12:43:05.358Z,87.51
2023-01-27T12:44:05.329Z,86.96
2023-01-27T12:45:05.321Z,87.16
2023-01-27T12:46:05.323Z,87.47
2023-01-27T12:47:05.298Z,86.85
2023-01-27T12:48:05.289Z,86.65
2023-01-27T12:49:05.277Z,86.85
2023-01-27T12:50:05.288Z,87.06
2023-01-27T12:51:05.261Z,86.54
2023-01-27T12:52:05.255Z,85.92